Time;durP1;ratioP1;P1;durP2;ratioP2;P2;SDS_P1;SDS_P2;PMS_P1;PMS_P2;Temp;Humidity;BMP_temperature;BMP_pressure;BME280_temperature;BME280_humidity;BME280_pressure;Samples;Min_cycle;Max_cycle;Signal;HPM_P1;HPM_P2
2022/04/22 00:01:35;;;;;;;15.10;7.10;;;;;;;11.40;82.07;100896.00;5016686;28;20108;-44
2022/04/22 00:04:01;;;;;;;12.90;6.68;;;;;;;11.41;82.77;100896.88;5015146;28;20484;-44
2022/04/22 00:06:27;;;;;;;12.30;6.47;;;;;;;11.41;82.56;100887.00;5009598;28;20653;-44
2022/04/22 00:08:52;;;;;;;12.40;6.40;;;;;;;11.32;82.53;100886.16;5004706;28;20085;-43
2022/04/22 00:11:29;;;;;;;12.63;6.93;;;;;;;11.29;82.95;100889.16;5016384;28;20220;-43
2022/04/22 00:13:57;;;;;;;12.10;7.00;;;;;;;11.22;83.78;100889.97;5016489;28;20054;-44
2022/04/22 00:16:27;;;;;;;12.60;7.40;;;;;;;11.20;84.49;100888.31;5013305;28;20025;-45
2022/04/22 00:18:53;;;;;;;10.63;7.32;;;;;;;11.15;84.07;100879.94;4996680;28;20471;-45
2022/04/22 00:21:19;;;;;;;16.38;7.53;;;;;;;11.14;84.67;100883.59;5014470;28;20297;-45
2022/04/22 00:23:44;;;;;;;11.32;7.25;;;;;;;11.07;85.14;100879.91;5016059;28;20040;-44
2022/04/22 00:26:09;;;;;;;13.75;7.53;;;;;;;11.04;85.85;100874.06;5008051;28;20157;-43
2022/04/22 00:28:35;;;;;;;13.43;7.80;;;;;;;10.99;85.57;100880.72;5013856;28;20115;-42
2022/04/22 00:31:00;;;;;;;15.68;7.70;;;;;;;10.98;85.90;100878.22;5005566;28;20026;-43
2022/04/22 00:33:25;;;;;;;12.15;7.15;;;;;;;10.94;87.09;100877.69;5016137;28;20052;-43
2022/04/22 00:35:51;;;;;;;10.40;7.38;;;;;;;10.89;87.10;100872.00;5010924;28;20025;-43
2022/04/22 00:38:16;;;;;;;14.73;7.70;;;;;;;10.86;87.94;100874.19;5005636;28;20358;-43
2022/04/22 00:40:42;;;;;;;14.38;7.82;;;;;;;10.86;88.02;100877.66;5016318;28;20542;-45
2022/04/22 00:43:18;;;;;;;13.57;7.85;;;;;;;10.85;87.36;100876.03;5016796;28;20071;-43
2022/04/22 00:45:44;;;;;;;18.00;8.07;;;;;;;10.75;88.39;100875.31;5023480;28;20385;-43
2022/04/22 00:48:10;;;;;;;14.65;7.95;;;;;;;10.70;88.45;100875.78;5016275;28;20033;-44
2022/04/22 00:50:35;;;;;;;14.88;7.75;;;;;;;10.72;88.79;100872.97;5016372;28;20349;-43
2022/04/22 00:53:01;;;;;;;16.38;8.30;;;;;;;10.67;88.81;100865.44;5015583;28;20022;-45
2022/04/22 00:55:27;;;;;;;13.00;8.20;;;;;;;10.65;89.76;100862.09;5015662;28;20416;-44
2022/04/22 00:57:53;;;;;;;12.73;8.00;;;;;;;10.65;89.80;100864.75;5017864;28;20029;-43
2022/04/22 01:00:20;;;;;;;14.35;8.15;;;;;;;10.62;90.17;100857.06;5010229;28;20447;-45
2022/04/22 01:02:45;;;;;;;16.52;8.48;;;;;;;10.61;90.34;100861.56;5003973;28;20026;-43
2022/04/22 01:10:38;;;;;;;14.57;8.70;;;;;;;10.46;91.63;100855.16;5001972;28;20052;-45
2022/04/22 01:13:07;;;;;;;17.73;9.30;;;;;;;10.43;92.25;100858.16;5002137;28;20417;-47
2022/04/22 01:15:34;;;;;;;20.15;9.32;;;;;;;10.43;92.41;100853.63;5004004;28;20088;-44
2022/04/22 01:17:59;;;;;;;16.80;8.98;;;;;;;10.36;92.45;100847.28;4996708;28;20040;-44
2022/04/22 01:20:25;;;;;;;11.98;8.50;;;;;;;10.34;92.60;100845.78;4995903;28;20477;-46
2022/04/22 01:22:50;;;;;;;18.38;8.73;;;;;;;10.31;93.13;100838.88;4999679;28;20018;-47
2022/04/22 01:25:15;;;;;;;13.88;9.10;;;;;;;10.25;93.67;100835.03;5018239;28;20031;-47
2022/04/22 01:27:42;;;;;;;13.60;8.98;;;;;;;10.25;94.07;100837.69;5020245;28;20028;-44
2022/04/22 01:30:07;;;;;;;16.92;9.23;;;;;;;10.22;94.48;100830.00;5017866;28;20558;-44
2022/04/22 01:32:32;;;;;;;17.92;9.80;;;;;;;10.20;94.66;100836.47;5005494;28;20025;-42
2022/04/22 01:34:58;;;;;;;18.08;9.88;;;;;;;10.19;94.81;100830.31;5000732;28;20057;-43
2022/04/22 01:37:23;;;;;;;18.65;9.65;;;;;;;10.19;95.21;100834.81;5011735;28;20050;-44
2022/04/22 01:39:49;;;;;;;14.25;9.32;;;;;;;10.15;95.41;100828.97;5005078;28;20477;-43
2022/04/22 01:42:14;;;;;;;21.00;10.13;;;;;;;10.14;96.17;100824.63;5007975;28;20242;-43
2022/04/22 01:44:39;;;;;;;15.65;9.95;;;;;;;10.08;95.58;100819.91;4998357;28;20014;-45
2022/04/22 01:47:05;;;;;;;13.73;9.38;;;;;;;10.06;96.37;100827.22;5010526;28;20491;-43
2022/04/22 01:49:31;;;;;;;16.42;9.38;;;;;;;10.06;96.90;100821.91;5010387;28;20037;-44
2022/04/22 01:51:56;;;;;;;18.33;9.68;;;;;;;10.04;96.77;100826.56;5020633;28;20048;-43
2022/04/22 01:54:21;;;;;;;16.88;9.85;;;;;;;9.99;97.25;100821.69;5019742;28;20042;-42
2022/04/22 01:56:47;;;;;;;17.30;9.90;;;;;;;9.97;97.08;100826.34;5020142;28;20025;-44
2022/04/22 01:59:12;;;;;;;17.00;9.70;;;;;;;9.93;97.69;100830.34;5018859;28;20341;-43
2022/04/22 02:01:37;;;;;;;14.90;9.80;;;;;;;9.93;98.24;100822.34;5019683;28;20159;-47
2022/04/22 02:04:03;;;;;;;16.50;10.10;;;;;;;9.92;97.66;100826.00;5018280;28;20403;-44
2022/04/22 02:06:28;;;;;;;21.73;10.27;;;;;;;9.84;98.63;100820.59;5009802;28;20038;-44
2022/04/22 02:08:54;;;;;;;17.05;9.90;;;;;;;9.86;99.15;100821.28;5004636;28;20579;-47
2022/04/22 02:11:19;;;;;;;21.80;9.70;;;;;;;9.82;98.76;100825.25;5019539;28;20029;-45
2022/04/22 02:13:45;;;;;;;14.15;9.65;;;;;;;9.79;99.81;100828.22;5012543;28;20053;-45
2022/04/22 02:16:12;;;;;;;17.60;9.93;;;;;;;9.74;99.83;100819.88;5009878;28;20344;-44
2022/04/22 02:18:39;;;;;;;17.17;9.85;;;;;;;9.78;99.83;100826.56;5017632;28;20395;-44
2022/04/22 02:21:06;;;;;;;15.20;9.65;;;;;;;9.74;99.52;100820.69;5002928;28;20025;-48
2022/04/22 02:23:32;;;;;;;17.98;10.32;;;;;;;9.73;100.00;100829.72;4999301;28;20033;-41
2022/04/22 02:25:57;;;;;;;19.15;10.32;;;;;;;9.74;99.98;100834.03;4998631;28;20528;-41
2022/04/22 02:28:33;;;;;;;14.55;9.40;;;;;;;9.74;100.00;100831.34;5008180;28;20037;-41
2022/04/22 02:31:09;;;;;;;20.38;9.88;;;;;;;9.70;100.00;100825.50;5018202;28;20369;-42
2022/04/22 02:33:37;;;;;;;15.77;10.40;;;;;;;9.69;100.00;100823.84;5017192;28;20469;-41
2022/04/22 02:36:03;;;;;;;18.05;10.15;;;;;;;9.73;100.00;100819.03;5018696;28;20029;-44
2022/04/22 02:38:29;;;;;;;20.45;10.70;;;;;;;9.67;100.00;100820.50;5017220;28;20049;-42
2022/04/22 02:46:24;;;;;;;18.05;11.13;;;;;;;9.57;100.00;100814.41;5012219;28;20160;-44
2022/04/22 02:48:51;;;;;;;19.05;11.07;;;;;;;9.55;100.00;100816.41;5002143;28;20120;-41
2022/04/22 02:51:16;;;;;;;15.88;10.75;;;;;;;9.53;100.00;100813.06;5001690;28;20029;-41
2022/04/22 02:53:42;;;;;;;21.00;11.40;;;;;;;9.49;100.00;100806.38;5015719;28;20032;-41
2022/04/22 02:56:07;;;;;;;17.90;11.60;;;;;;;9.45;100.00;100802.31;5008735;28;20079;-40
2022/04/22 02:58:34;;;;;;;22.85;11.25;;;;;;;9.41;100.00;100793.81;4999233;28;20026;-40
2022/04/22 03:00:59;;;;;;;20.70;11.77;;;;;;;9.41;100.00;100800.97;5007613;28;20029;-41
2022/04/22 03:03:24;;;;;;;17.38;11.52;;;;;;;9.40;100.00;100793.94;5016652;28;20423;-41
2022/04/22 03:05:51;;;;;;;19.90;12.23;;;;;;;9.37;100.00;100792.44;5018522;28;20605;-41
2022/04/22 03:08:16;;;;;;;20.27;11.73;;;;;;;9.33;100.00;100796.41;5017907;28;20510;-42
2022/04/22 03:10:41;;;;;;;19.40;11.63;;;;;;;9.31;100.00;100790.38;5018528;28;20084;-40
2022/04/22 03:13:06;;;;;;;20.27;12.32;;;;;;;9.32;100.00;100792.06;5017344;28;20428;-43
2022/04/22 03:15:33;;;;;;;17.75;11.80;;;;;;;9.29;100.00;100795.88;5002295;28;20125;-45
2022/04/22 03:17:59;;;;;;;19.98;12.07;;;;;;;9.22;100.00;100797.50;5010343;28;20043;-43
2022/04/22 03:20:25;;;;;;;24.17;12.52;;;;;;;9.15;100.00;100796.44;5014915;28;20114;-42
2022/04/22 03:22:50;;;;;;;20.13;11.88;;;;;;;9.15;100.00;100799.91;4999663;28;20106;-43
2022/04/22 03:25:19;;;;;;;21.45;11.77;;;;;;;9.15;100.00;100799.09;4998989;28;20031;-42
2022/04/22 03:27:44;;;;;;;20.98;11.73;;;;;;;9.13;100.00;100796.56;4999032;28;20061;-41
2022/04/22 03:30:10;;;;;;;22.10;11.93;;;;;;;9.09;100.00;100805.84;5016375;28;20527;-42
2022/04/22 03:32:35;;;;;;;19.13;11.93;;;;;;;9.07;100.00;100802.50;5017210;28;20038;-43
2022/04/22 03:35:01;;;;;;;23.95;11.90;;;;;;;9.06;100.00;100795.53;5016197;28;20334;-43
2022/04/22 03:37:26;;;;;;;18.30;11.82;;;;;;;9.05;100.00;100798.34;5004346;28;20717;-42
2022/04/22 03:39:51;;;;;;;20.75;12.40;;;;;;;9.02;100.00;100794.13;4997878;28;20030;-43
2022/04/22 03:42:17;;;;;;;19.65;11.55;;;;;;;9.02;100.00;100793.31;4997152;28;20309;-41
2022/04/22 03:44:42;;;;;;;23.45;12.10;;;;;;;8.99;100.00;100790.94;4995503;28;20028;-43
2022/04/22 03:47:07;;;;;;;19.98;11.40;;;;;;;8.95;100.00;100785.09;5000027;28;20025;-40
2022/04/22 03:49:36;;;;;;;20.60;12.35;;;;;;;8.93;100.00;100789.72;5009153;28;20419;-41
2022/04/22 03:52:01;;;;;;;23.45;11.80;;;;;;;8.94;100.00;100784.25;5004627;28;20071;-41
2022/04/22 03:54:27;;;;;;;21.40;12.38;;;;;;;8.88;100.00;100776.88;5016703;28;21171;-42
2022/04/22 03:59:37;;;;;;;22.02;13.02;;;;;;;8.88;100.00;100774.19;5005043;28;20518;-44
2022/04/22 04:02:03;;;;;;;22.02;12.68;;;;;;;8.91;100.00;100781.03;5007970;28;20026;-45
2022/04/22 04:04:28;;;;;;;19.50;12.57;;;;;;;8.91;100.00;100770.38;5009911;28;20536;-41
2022/04/22 04:06:54;;;;;;;20.92;12.50;;;;;;;8.88;100.00;100770.72;5017532;28;20175;-42
2022/04/22 04:17:41;;;;;;;24.65;12.85;;;;;;;8.77;100.00;100769.94;5016341;28;20090;-40
2022/04/22 04:25:35;;;;;;;23.13;13.02;;;;;;;8.72;100.00;100779.34;5018091;28;20483;-41
2022/04/22 04:28:02;;;;;;;21.05;11.70;;;;;;;8.72;100.00;100782.00;5016542;28;20057;-41
2022/04/22 04:30:27;;;;;;;22.20;12.48;;;;;;;8.70;100.00;100776.00;5016009;28;20454;-42
2022/04/22 04:32:53;;;;;;;26.48;12.43;;;;;;;8.73;100.00;100770.38;5005674;28;20200;-43
2022/04/22 04:35:18;;;;;;;22.00;12.40;;;;;;;8.72;100.00;100772.22;5013833;28;20038;-44
2022/04/22 04:37:43;;;;;;;21.77;11.98;;;;;;;8.71;100.00;100762.56;5006808;28;20068;-43
2022/04/22 04:40:09;;;;;;;21.75;12.07;;;;;;;8.75;100.00;100765.75;5000189;28;20691;-41
2022/04/22 04:42:35;;;;;;;20.92;11.77;;;;;;;8.70;100.00;100768.03;5016729;28;20538;-43
2022/04/22 04:45:01;;;;;;;22.90;12.80;;;;;;;8.71;100.00;100762.56;5016157;28;20041;-41
2022/04/22 04:47:26;;;;;;;20.80;12.20;;;;;;;8.70;100.00;100762.69;5015560;28;20170;-41
2022/04/22 04:49:51;;;;;;;18.85;12.15;;;;;;;8.76;100.00;100773.59;5015524;28;20442;-41
2022/04/22 04:52:16;;;;;;;22.23;12.25;;;;;;;8.76;100.00;100770.91;5016873;28;20025;-41
2022/04/22 04:54:42;;;;;;;23.95;12.52;;;;;;;8.78;100.00;100776.94;5002657;28;20541;-44
2022/04/22 04:57:07;;;;;;;31.00;12.77;;;;;;;8.79;100.00;100777.75;5007999;28;20030;-41
2022/04/22 04:59:32;;;;;;;24.25;13.23;;;;;;;8.79;100.00;100769.75;4999783;28;20359;-42
2022/04/22 05:01:57;;;;;;;21.08;13.00;;;;;;;8.81;100.00;100772.28;5016881;28;20033;-45
2022/04/22 05:04:23;;;;;;;21.98;13.68;;;;;;;8.84;100.00;100777.31;5010393;28;20018;-40
2022/04/22 05:06:49;;;;;;;23.35;14.02;;;;;;;8.87;100.00;100771.69;5003452;28;20154;-44
2022/04/22 05:09:14;;;;;;;23.23;13.60;;;;;;;8.85;100.00;100768.34;5001540;28;20118;-41
2022/04/22 05:11:39;;;;;;;30.10;14.15;;;;;;;8.85;100.00;100771.84;5011292;28;20094;-41
2022/04/22 05:14:06;;;;;;;30.95;14.05;;;;;;;8.88;100.00;100787.50;5014261;28;20040;-42
2022/04/22 05:16:32;;;;;;;28.30;15.18;;;;;;;8.89;100.00;100780.34;5017416;28;20057;-46
2022/04/22 05:18:58;;;;;;;25.25;14.73;;;;;;;8.91;100.00;100775.72;5014129;28;20151;-42
2022/04/22 05:21:23;;;;;;;27.17;14.48;;;;;;;8.93;100.00;100777.25;5016529;28;20380;-46
2022/04/22 05:23:49;;;;;;;26.45;14.75;;;;;;;8.95;100.00;100777.09;5003204;28;20064;-42
2022/04/22 05:26:14;;;;;;;26.73;15.40;;;;;;;8.98;100.00;100778.59;5015586;28;20496;-43
2022/04/22 05:28:39;;;;;;;27.50;15.10;;;;;;;9.00;100.00;100777.47;5015511;28;20037;-40
2022/04/22 05:33:49;;;;;;;29.80;16.50;;;;;;;9.07;100.00;100780.38;5004315;28;20129;-41
2022/04/22 05:36:14;;;;;;;28.35;16.30;;;;;;;9.10;100.00;100775.56;5013621;28;20121;-42
2022/04/22 05:38:41;;;;;;;28.58;16.35;;;;;;;9.12;100.00;100778.91;4996538;28;20415;-42
2022/04/22 05:41:06;;;;;;;30.67;16.50;;;;;;;9.20;100.00;100772.81;5005980;28;20700;-44
2022/04/22 05:43:31;;;;;;;29.60;17.30;;;;;;;9.27;100.00;100768.53;5009034;28;20126;-43
2022/04/22 05:45:57;;;;;;;31.63;16.88;;;;;;;9.29;100.00;100763.06;5013648;28;20097;-43
2022/04/22 05:48:22;;;;;;;29.17;16.95;;;;;;;9.30;100.00;100773.56;5013064;28;20411;-43
2022/04/22 05:50:47;;;;;;;33.40;17.73;;;;;;;9.38;100.00;100778.13;5012455;28;20229;-43
2022/04/22 05:53:12;;;;;;;29.08;16.95;;;;;;;9.41;100.00;100777.81;5010311;28;20029;-43
2022/04/22 05:55:38;;;;;;;32.28;17.77;;;;;;;9.41;100.00;100777.81;5009385;28;20136;-44
2022/04/22 05:58:03;;;;;;;29.95;17.33;;;;;;;9.45;100.00;100779.19;5013867;28;20478;-42
2022/04/22 06:00:31;;;;;;;29.02;17.23;;;;;;;9.54;100.00;100785.41;5014460;28;20059;-42
2022/04/22 06:02:57;;;;;;;35.97;18.30;;;;;;;9.68;100.00;100784.00;5013838;28;20490;-42
2022/04/22 06:05:23;;;;;;;28.92;17.50;;;;;;;9.84;100.00;100784.13;5013172;28;20443;-41
2022/04/22 06:10:34;;;;;;;30.00;17.38;;;;;;;10.11;100.00;100782.22;5016221;28;20110;-41
2022/04/22 06:13:00;;;;;;;30.25;18.15;;;;;;;10.19;100.00;100782.28;5018441;28;20192;-40
2022/04/22 06:15:26;;;;;;;27.02;17.65;;;;;;;10.24;100.00;100777.28;5011347;28;20117;-44
2022/04/22 06:17:52;;;;;;;32.00;18.45;;;;;;;10.26;100.00;100777.97;5011667;28;20517;-40
2022/04/22 06:20:17;;;;;;;28.83;17.73;;;;;;;10.26;100.00;100780.63;5000200;28;20029;-43
2022/04/22 06:22:43;;;;;;;29.52;16.73;;;;;;;10.25;100.00;100776.31;5013191;28;20429;-42
2022/04/22 06:25:10;;;;;;;27.95;17.25;;;;;;;10.26;100.00;100777.13;5018648;28;20052;-42
2022/04/22 06:27:40;;;;;;;28.90;17.67;;;;;;;10.26;100.00;100767.28;5015911;28;20029;-41
2022/04/22 06:30:16;;;;;;;27.15;17.70;;;;;;;10.32;100.00;100773.84;5012052;28;20033;-41
2022/04/22 06:32:44;;;;;;;26.73;17.42;;;;;;;10.41;100.00;100774.72;5015326;28;20084;-41
2022/04/22 06:35:10;;;;;;;31.95;17.08;;;;;;;10.49;100.00;100771.22;5013714;28;20255;-43
2022/04/22 06:37:39;;;;;;;26.77;17.77;;;;;;;10.55;100.00;100781.28;5015629;28;20139;-41
2022/04/22 06:45:48;;;;;;;26.45;17.10;;;;;;;10.71;100.00;100777.78;4999105;28;20121;-42
2022/04/22 06:48:16;;;;;;;29.38;17.55;;;;;;;10.71;100.00;100773.31;4998641;28;20026;-43
2022/04/22 06:50:44;;;;;;;24.90;16.73;;;;;;;10.68;100.00;100764.78;4999829;28;20721;-45
2022/04/22 06:53:10;;;;;;;27.50;17.50;;;;;;;10.83;100.00;100782.66;5010758;28;20104;-43
2022/04/22 06:55:38;;;;;;;28.65;16.52;;;;;;;10.94;100.00;100775.34;5018799;28;20113;-43
2022/04/22 06:58:08;;;;;;;26.98;16.38;;;;;;;11.09;100.00;100770.19;5017475;28;20536;-42
2022/04/22 07:00:34;;;;;;;27.93;17.13;;;;;;;11.26;100.00;100776.38;4998261;28;20380;-42
2022/04/22 07:02:59;;;;;;;25.92;16.98;;;;;;;11.42;100.00;100771.00;4997511;28;20484;-44
2022/04/22 07:05:25;;;;;;;25.77;16.73;;;;;;;11.57;100.00;100772.00;5002518;28;20087;-42
2022/04/22 07:07:50;;;;;;;25.80;16.45;;;;;;;11.72;100.00;100771.28;5018298;28;20065;-42
2022/04/22 07:10:16;;;;;;;27.80;16.77;;;;;;;11.84;100.00;100777.13;5011374;28;20040;-43
2022/04/22 07:12:41;;;;;;;27.55;17.00;;;;;;;11.99;100.00;100772.75;5000949;28;20065;-45
2022/04/22 07:15:08;;;;;;;30.08;17.10;;;;;;;12.17;100.00;100772.53;5017640;28;20073;-41
2022/04/22 07:17:34;;;;;;;26.35;16.80;;;;;;;12.20;100.00;100776.69;5017330;28;20328;-42
2022/04/22 07:20:07;;;;;;;25.52;16.67;;;;;;;12.12;100.00;100774.91;5008839;28;20049;-42
2022/04/22 07:22:34;;;;;;;24.60;15.55;;;;;;;12.15;99.44;100769.19;5012554;28;20033;-44
2022/04/22 07:25:00;;;;;;;25.08;15.68;;;;;;;12.16;99.83;100764.69;5017197;28;20634;-41
2022/04/22 07:27:30;;;;;;;26.20;16.27;;;;;;;12.23;99.74;100761.13;5012966;28;20061;-44
2022/04/22 07:29:57;;;;;;;22.02;15.93;;;;;;;12.44;100.00;100765.88;5016923;28;20048;-42
2022/04/22 07:32:22;;;;;;;22.00;15.50;;;;;;;12.61;98.92;100757.75;5017539;28;20040;-43
2022/04/22 07:34:48;;;;;;;24.67;15.32;;;;;;;12.88;97.23;100751.88;5016571;28;20094;-42
2022/04/22 07:37:13;;;;;;;27.55;15.60;;;;;;;13.19;97.31;100755.50;5017617;28;20090;-42
2022/04/22 07:39:39;;;;;;;27.77;14.65;;;;;;;13.37;94.81;100757.88;5017947;28;20045;-41
2022/04/22 07:42:07;;;;;;;22.27;14.88;;;;;;;13.25;94.09;100750.25;5018245;28;20369;-41
2022/04/22 07:47:22;;;;;;;23.70;14.48;;;;;;;13.14;94.38;100750.69;5000004;28;20108;-42
2022/04/22 07:49:47;;;;;;;22.83;15.18;;;;;;;13.26;93.46;100748.41;5010251;28;20585;-43
2022/04/22 07:52:13;;;;;;;24.27;14.57;;;;;;;13.17;92.85;100761.06;5011980;28;20117;-43
2022/04/22 07:54:38;;;;;;;23.05;15.25;;;;;;;13.07;93.03;100753.25;5004131;28;20120;-43
2022/04/22 07:57:03;;;;;;;21.13;14.93;;;;;;;13.14;92.40;100761.41;5010073;28;20068;-42
2022/04/22 07:59:30;;;;;;;22.83;14.10;;;;;;;13.14;92.71;100757.91;5006938;28;20102;-41
2022/04/22 08:01:58;;;;;;;20.92;14.52;;;;;;;13.27;92.89;100754.59;4998308;28;20026;-42
2022/04/22 08:04:25;;;;;;;22.65;14.40;;;;;;;13.43;91.63;100762.53;4998465;28;20030;-42
2022/04/22 08:06:51;;;;;;;22.52;14.02;;;;;;;13.64;91.67;100756.44;5017591;28;20582;-43
2022/04/22 08:09:16;;;;;;;22.13;14.43;;;;;;;13.77;91.98;100755.81;5014592;28;20057;-42
2022/04/22 08:11:43;;;;;;;22.98;13.90;;;;;;;13.93;90.34;100752.13;5017363;28;20032;-44
2022/04/22 08:14:11;;;;;;;18.83;14.07;;;;;;;13.99;88.99;100748.69;5015348;28;20345;-42
2022/04/22 08:16:36;;;;;;;19.42;14.38;;;;;;;14.05;90.08;100747.09;5001511;28;20038;-43
2022/04/22 08:19:02;;;;;;;22.83;14.98;;;;;;;14.07;88.89;100745.06;5015486;28;20083;-46
2022/04/22 08:21:33;;;;;;;20.55;14.05;;;;;;;13.94;89.44;100754.63;4999980;28;20100;-43
2022/04/22 08:23:58;;;;;;;18.42;14.18;;;;;;;13.84;89.69;100761.28;5002079;28;20037;-43
2022/04/22 08:26:23;;;;;;;22.05;14.63;;;;;;;13.73;90.32;100749.13;5004861;28;20117;-43
2022/04/22 08:28:48;;;;;;;19.05;13.05;;;;;;;13.78;89.96;100744.91;5015990;28;20018;-43
2022/04/22 08:31:14;;;;;;;17.77;13.75;;;;;;;13.77;88.47;100740.53;5016586;28;20511;-41
2022/04/22 08:33:40;;;;;;;18.65;13.30;;;;;;;13.79;89.11;100738.50;5014835;28;20036;-44
2022/04/22 08:36:05;;;;;;;19.88;12.98;;;;;;;13.88;87.52;100741.91;5015691;28;20124;-41
2022/04/22 08:38:31;;;;;;;22.10;13.77;;;;;;;13.92;89.15;100737.03;5014414;28;20136;-43
2022/04/22 08:40:57;;;;;;;24.05;13.90;;;;;;;14.03;87.75;100746.47;5016956;28;20534;-43
2022/04/22 08:43:24;;;;;;;23.60;14.32;;;;;;;14.20;87.91;100747.91;5016167;28;20514;-42
2022/04/22 08:45:49;;;;;;;33.83;14.52;;;;;;;14.28;86.49;100736.25;5015432;28;20048;-42
2022/04/22 08:50:59;;;;;;;20.50;13.50;;;;;;;14.68;85.52;100728.66;5004364;28;20044;-42
2022/04/22 08:53:28;;;;;;;19.35;13.45;;;;;;;14.92;84.05;100722.91;5016373;28;20048;-44
2022/04/22 08:55:57;;;;;;;21.38;13.52;;;;;;;14.92;83.90;100714.84;5015287;28;20099;-43
2022/04/22 08:58:25;;;;;;;21.02;13.88;;;;;;;14.79;82.17;100712.03;5004515;28;20485;-41
2022/04/22 09:00:51;;;;;;;19.00;13.25;;;;;;;14.97;83.05;100708.03;5011878;28;20116;-41
2022/04/22 09:03:17;;;;;;;18.75;13.50;;;;;;;15.01;81.90;100718.22;5012370;28;20025;-42
2022/04/22 09:05:44;;;;;;;22.55;14.10;;;;;;;14.88;83.21;100718.97;4998260;28;20499;-45
2022/04/22 09:08:10;;;;;;;27.73;13.77;;;;;;;14.83;82.47;100720.53;4996223;28;20080;-41
2022/04/22 09:10:38;;;;;;;24.05;14.60;;;;;;;15.08;83.84;100712.91;4997218;28;20034;-43
2022/04/22 09:13:09;;;;;;;25.33;14.43;;;;;;;15.62;82.72;100711.44;4996382;28;20030;-43
2022/04/22 09:15:35;;;;;;;18.92;14.27;;;;;;;16.00;80.36;100706.50;5015166;28;20124;-41
2022/04/22 09:18:12;;;;;;;20.10;13.48;;;;;;;16.47;78.04;100703.97;5015390;28;20029;-44
2022/04/22 09:20:38;;;;;;;18.60;13.52;;;;;;;16.74;75.59;100706.72;5003111;28;20128;-42
2022/04/22 09:23:40;;;;;;;27.10;14.02;;;;;;;16.74;75.52;100695.94;5009822;28;20116;-43
2022/04/22 09:26:22;;;;;;;29.05;13.90;;;;;;;16.83;75.26;100692.00;4995315;28;20112;-44
2022/04/22 09:29:05;;;;;;;18.50;12.85;;;;;;;17.02;72.25;100695.75;4998271;28;20031;-41
2022/04/22 09:31:44;;;;;;;19.42;12.43;;;;;;;17.26;72.50;100690.78;5008964;28;20387;-41
2022/04/22 09:34:09;;;;;;;20.80;11.30;;;;;;;17.63;69.49;100683.03;5013974;28;20508;-45
2022/04/22 09:44:56;;;;;;;15.65;11.32;;;;;;;17.79;68.37;100669.06;4997728;28;20456;-43
2022/04/22 09:47:26;;;;;;;15.43;9.73;;;;;;;17.53;64.32;100672.66;5019355;28;20029;-43
2022/04/22 09:49:51;;;;;;;12.77;9.65;;;;;;;17.29;64.73;100672.31;5017018;28;20167;-44
2022/04/22 09:52:30;;;;;;;14.80;10.63;;;;;;;17.03;66.38;100667.75;5005191;28;20123;-43
2022/04/22 09:54:57;;;;;;;16.33;10.18;;;;;;;16.88;66.28;100665.25;5015826;28;20032;-42
2022/04/22 09:57:22;;;;;;;13.02;10.07;;;;;;;16.96;67.98;100666.94;5002534;28;20034;-42
2022/04/22 09:59:48;;;;;;;14.88;10.10;;;;;;;17.22;66.96;100655.28;4996958;28;20108;-42
2022/04/22 10:02:21;;;;;;;14.48;9.70;;;;;;;17.62;64.16;100643.56;5003155;28;20034;-44
2022/04/22 10:04:48;;;;;;;14.88;10.38;;;;;;;17.66;63.03;100650.19;4998026;28;20491;-49
2022/04/22 10:07:16;;;;;;;12.38;10.30;;;;;;;17.48;62.27;100640.06;4999733;28;20029;-42
2022/04/22 10:09:43;;;;;;;15.68;9.73;;;;;;;17.42;66.04;100646.31;5017113;28;20021;-43
2022/04/22 10:12:10;;;;;;;13.40;9.40;;;;;;;17.59;66.06;100644.81;5015123;28;20057;-43
2022/04/22 10:14:38;;;;;;;14.30;9.55;;;;;;;17.65;63.26;100646.69;4997455;28;20281;-42
2022/04/22 10:17:05;;;;;;;20.30;10.07;;;;;;;18.00;61.32;100646.34;4999899;28;20034;-43
2022/04/22 10:19:34;;;;;;;15.10;9.27;;;;;;;18.18;56.65;100645.66;4997858;28;20766;-42
2022/04/22 10:22:00;;;;;;;12.68;8.75;;;;;;;18.04;59.14;100635.94;4998851;28;20477;-44
2022/04/22 10:24:26;;;;;;;12.48;9.43;;;;;;;17.80;60.82;100643.69;5014753;28;20445;-43
2022/04/22 10:26:52;;;;;;;13.55;9.95;;;;;;;17.51;57.88;100636.94;5016973;28;20268;-40
2022/04/22 10:29:19;;;;;;;14.25;9.70;;;;;;;17.29;58.98;100644.47;5009740;28;20361;-41
2022/04/22 10:31:45;;;;;;;13.25;9.68;;;;;;;17.22;58.93;100636.38;4999826;28;20113;-41
2022/04/22 10:34:11;;;;;;;12.98;9.50;;;;;;;17.14;59.47;100632.06;5011486;28;20314;-40
2022/04/22 10:36:38;;;;;;;14.43;10.27;;;;;;;16.93;60.53;100630.41;5005618;28;20105;-43
2022/04/22 10:39:03;;;;;;;16.52;10.50;;;;;;;16.68;63.26;100638.25;4998833;28;20084;-43
2022/04/22 10:41:43;;;;;;;16.08;10.73;;;;;;;16.47;64.50;100636.56;4998940;28;20108;-45
2022/04/22 10:49:39;;;;;;;20.67;11.95;;;;;;;16.09;67.13;100637.13;4997783;28;20137;-42
2022/04/22 10:52:14;;;;;;;17.55;11.40;;;;;;;16.00;68.30;100628.41;4999418;28;20322;-43
2022/04/22 10:54:55;;;;;;;19.65;11.07;;;;;;;15.96;70.02;100632.50;4997907;28;20057;-42
2022/04/22 10:57:27;;;;;;;17.65;11.68;;;;;;;15.89;69.05;100631.66;5002962;28;20037;-41
2022/04/22 11:00:07;;;;;;;17.80;11.98;;;;;;;15.80;69.60;100631.00;5013187;28;20140;-41
2022/04/22 11:02:40;;;;;;;18.40;10.75;;;;;;;15.66;71.21;100632.78;5013695;28;20023;-44
2022/04/22 11:05:20;;;;;;;21.73;12.27;;;;;;;15.65;71.39;100636.50;5019038;28;20387;-43
2022/04/22 11:07:51;;;;;;;18.33;11.30;;;;;;;15.68;71.00;100624.47;5015042;28;20522;-45
2022/04/22 11:10:27;;;;;;;19.92;11.88;;;;;;;15.64;70.84;100637.50;5011109;28;20506;-46
2022/04/22 11:12:57;;;;;;;28.17;11.45;;;;;;;15.60;72.05;100622.81;5018254;28;20442;-46
2022/04/22 11:15:49;;;;;;;14.80;11.57;;;;;;;15.83;70.85;100625.22;5008068;28;20140;-45
2022/04/22 11:18:16;;;;;;;19.52;11.73;;;;;;;15.95;69.13;100620.06;4996534;28;20041;-45
2022/04/22 11:20:42;;;;;;;15.57;11.15;;;;;;;16.04;68.70;100618.03;4999483;28;20057;-45
2022/04/22 11:23:12;;;;;;;16.65;11.55;;;;;;;16.12;68.51;100625.09;5013668;28;20116;-45
2022/04/22 11:25:38;;;;;;;18.10;11.38;;;;;;;16.32;69.07;100617.06;5018850;28;20476;-42
2022/04/22 11:28:04;;;;;;;16.23;11.80;;;;;;;16.49;69.26;100614.81;5006205;28;20106;-44
2022/04/22 11:30:32;;;;;;;18.38;11.55;;;;;;;16.69;68.29;100617.53;5010850;28;20159;-44
2022/04/22 11:33:19;;;;;;;27.25;12.27;;;;;;;16.71;67.58;100615.44;5012032;28;20025;-45
2022/04/22 11:35:47;;;;;;;18.65;12.13;;;;;;;16.54;68.29;100617.72;4998797;28;20029;-44
2022/04/22 11:38:13;;;;;;;19.73;11.48;;;;;;;16.40;66.78;100620.38;5012397;28;20379;-44
2022/04/22 11:40:39;;;;;;;15.60;11.48;;;;;;;16.27;68.62;100616.84;5005789;28;20480;-43
2022/04/22 11:43:10;;;;;;;20.40;11.63;;;;;;;16.14;69.65;100620.31;4999504;28;20025;-46
2022/04/22 11:45:37;;;;;;;20.75;11.60;;;;;;;16.05;69.80;100611.59;5018893;28;20025;-46
2022/04/22 11:48:09;;;;;;;16.55;10.77;;;;;;;16.02;70.85;100623.63;5017062;28;20104;-45
2022/04/22 11:50:42;;;;;;;19.60;10.95;;;;;;;16.11;69.12;100618.06;5018418;28;20208;-44
2022/04/22 11:53:16;;;;;;;19.42;10.57;;;;;;;16.34;68.70;100606.91;4995222;28;20108;-44
2022/04/22 11:55:42;;;;;;;18.30;10.63;;;;;;;16.42;68.53;100621.00;4998523;28;20057;-43
2022/04/22 11:58:12;;;;;;;17.23;10.38;;;;;;;16.66;67.36;100607.97;4996294;28;20558;-43
2022/04/22 12:06:14;;;;;;;15.18;10.02;;;;;;;17.20;62.62;100592.59;5010802;28;20056;-44
2022/04/22 12:08:50;;;;;;;20.70;10.27;;;;;;;17.47;62.30;100590.66;5013013;28;20037;-45
2022/04/22 12:11:18;;;;;;;17.02;10.20;;;;;;;17.61;61.56;100587.91;5016841;28;20052;-48
2022/04/22 12:13:45;;;;;;;18.00;9.80;;;;;;;17.62;60.92;100603.06;5005059;28;20067;-44
2022/04/22 12:16:11;;;;;;;14.93;9.80;;;;;;;17.57;60.50;100583.97;5009820;28;20318;-46